createdAt,value
2022-10-01T00:01:15.633Z,0
2022-10-01T00:02:30.939Z,0
2022-10-01T00:03:47.240Z,0
2022-10-01T00:05:03.518Z,0
2022-10-01T00:06:19.814Z,0
2022-10-01T00:07:36.113Z,0
2022-10-01T00:08:52.405Z,0
2022-10-01T00:10:08.692Z,0
2022-10-01T00:11:24.995Z,0
2022-10-01T00:12:41.280Z,0
2022-10-01T00:13:57.565Z,0
2022-10-01T00:15:13.870Z,0
2022-10-01T00:16:30.152Z,0
2022-10-01T00:17:46.459Z,0
2022-10-01T00:19:01.755Z,0
2022-10-01T00:20:18.061Z,0
2022-10-01T00:21:34.345Z,0
2022-10-01T00:22:50.641Z,0
2022-10-01T00:24:06.928Z,0
2022-10-01T00:25:23.228Z,0
2022-10-01T00:26:39.530Z,0
2022-10-01T00:27:55.815Z,0
2022-10-01T00:29:12.102Z,0
2022-10-01T00:30:28.391Z,0
2022-10-01T00:31:44.687Z,0
2022-10-01T00:33:00.978Z,0
2022-10-01T00:34:17.280Z,0
2022-10-01T00:35:32.597Z,0
2022-10-01T00:36:48.879Z,0
2022-10-01T00:38:05.176Z,0
2022-10-01T00:39:21.466Z,0
2022-10-01T00:40:37.752Z,0
2022-10-01T00:41:54.047Z,0
2022-10-01T00:43:10.338Z,0
2022-10-01T00:44:26.641Z,0
2022-10-01T00:45:42.922Z,0
2022-10-01T00:46:59.225Z,0
2022-10-01T00:48:15.515Z,0
2022-10-01T00:49:31.797Z,0
2022-10-01T00:50:48.097Z,0
2022-10-01T00:52:03.406Z,0
2022-10-01T00:53:19.696Z,0
2022-10-01T00:54:35.987Z,0
2022-10-01T00:55:52.291Z,0
2022-10-01T00:57:08.581Z,0
2022-10-01T00:58:24.869Z,0
2022-10-01T00:59:41.164Z,0
2022-10-01T01:00:57.463Z,0
2022-10-01T01:02:13.751Z,0
2022-10-01T01:03:30.048Z,0
2022-10-01T01:04:46.329Z,0
2022-10-01T01:06:02.632Z,0
2022-10-01T01:07:18.919Z,0
2022-10-01T01:08:34.227Z,0
2022-10-01T01:09:50.521Z,0
2022-10-01T01:11:06.827Z,0
2022-10-01T01:12:23.105Z,0
2022-10-01T01:13:39.414Z,0
2022-10-01T01:14:55.691Z,0
2022-10-01T01:16:11.021Z,0
2022-10-01T01:17:27.297Z,0
2022-10-01T01:18:43.595Z,0
2022-10-01T01:19:59.894Z,0
2022-10-01T01:21:16.176Z,0
2022-10-01T01:22:32.468Z,0
2022-10-01T01:23:48.764Z,0
2022-10-01T01:25:05.071Z,0
2022-10-01T01:26:21.347Z,0
2022-10-01T01:27:37.653Z,0
2022-10-01T01:28:53.947Z,0
2022-10-01T01:30:10.233Z,0
2022-10-01T01:31:26.519Z,0
2022-10-01T01:32:41.845Z,0
2022-10-01T01:33:58.129Z,0
2022-10-01T01:35:14.430Z,0
2022-10-01T01:36:30.709Z,0
2022-10-01T01:37:47.014Z,0
2022-10-01T01:39:03.300Z,0
2022-10-01T01:40:19.591Z,0
2022-10-01T01:41:35.889Z,0
2022-10-01T01:42:52.173Z,0
2022-10-01T01:44:08.470Z,0
2022-10-01T01:45:24.752Z,0
2022-10-01T01:46:41.053Z,0
2022-10-01T01:47:57.354Z,0
2022-10-01T01:49:12.660Z,0
2022-10-01T01:50:28.960Z,0
2022-10-01T01:51:45.234Z,0
2022-10-01T01:53:01.534Z,0
2022-10-01T01:54:17.827Z,0
2022-10-01T01:55:34.127Z,0
2022-10-01T01:56:50.415Z,0
2022-10-01T01:58:06.713Z,0
2022-10-01T01:59:22.991Z,0
2022-10-01T02:00:39.301Z,0
2022-10-01T02:01:55.590Z,0
2022-10-01T02:03:11.878Z,0
2022-10-01T02:04:28.179Z,0
2022-10-01T02:05:43.481Z,0
2022-10-01T02:06:59.766Z,0
2022-10-01T02:08:16.071Z,0
2022-10-01T02:09:32.359Z,0
2022-10-01T02:10:48.651Z,0
2022-10-01T02:12:04.944Z,0
2022-10-01T02:13:21.242Z,0
2022-10-01T02:14:37.521Z,0
2022-10-01T02:15:53.824Z,0
2022-10-01T02:17:10.117Z,0
2022-10-01T02:18:26.409Z,0
2022-10-01T02:19:42.700Z,0
2022-10-01T02:20:58.994Z,0
2022-10-01T02:22:14.313Z,0
2022-10-01T02:23:30.587Z,0
2022-10-01T02:24:46.880Z,0
2022-10-01T02:26:03.184Z,0
2022-10-01T02:27:19.479Z,0
2022-10-01T02:28:35.773Z,0
2022-10-01T02:29:52.071Z,0
2022-10-01T02:31:08.363Z,0
2022-10-01T02:32:24.658Z,0
2022-10-01T02:33:40.943Z,0
2022-10-01T02:34:57.242Z,0
2022-10-01T02:36:13.518Z,0
2022-10-01T02:37:29.826Z,0
2022-10-01T02:38:45.136Z,0
2022-10-01T02:40:01.422Z,0
2022-10-01T02:41:17.707Z,0
2022-10-01T02:43:50.309Z,0
2022-10-01T02:45:06.602Z,0
2022-10-01T02:46:22.895Z,0
2022-10-01T02:47:39.177Z,0
2022-10-01T02:48:55.469Z,0
2022-10-01T02:50:11.769Z,0
2022-10-01T02:51:28.056Z,0
2022-10-01T02:52:44.344Z,0
2022-10-01T02:54:00.651Z,0
2022-10-01T02:55:15.954Z,0
2022-10-01T02:56:32.237Z,0
2022-10-01T02:57:48.547Z,0
2022-10-01T02:59:04.839Z,0
2022-10-01T03:00:21.131Z,0
2022-10-01T03:01:37.419Z,0
2022-10-01T03:02:53.700Z,0
2022-10-01T03:04:10.013Z,0
2022-10-01T03:05:26.306Z,0
2022-10-01T03:06:42.600Z,0
2022-10-01T03:07:58.890Z,0
2022-10-01T03:09:15.173Z,0
2022-10-01T03:10:31.476Z,0
2022-10-01T03:11:46.787Z,0
2022-10-01T03:13:03.061Z,0
2022-10-01T03:14:19.367Z,0
2022-10-01T03:15:35.656Z,0
2022-10-01T03:16:51.942Z,0
2022-10-01T03:18:08.236Z,0
2022-10-01T03:19:24.525Z,0
2022-10-01T03:20:40.831Z,0
2022-10-01T03:21:57.121Z,0
2022-10-01T03:23:13.411Z,0
2022-10-01T03:24:29.712Z,0
2022-10-01T03:25:46.004Z,0
2022-10-01T03:27:02.283Z,0
2022-10-01T03:28:17.592Z,0
2022-10-01T03:29:33.895Z,0
2022-10-01T03:30:50.191Z,0
2022-10-01T03:32:06.477Z,0
2022-10-01T03:33:22.764Z,0
2022-10-01T03:34:39.071Z,0
2022-10-01T03:35:55.349Z,0
2022-10-01T03:37:11.657Z,0
2022-10-01T03:38:27.950Z,0
2022-10-01T03:39:44.238Z,0
2022-10-01T03:41:00.522Z,0
2022-10-01T03:42:16.825Z,0
2022-10-01T03:43:33.118Z,0
2022-10-01T03:44:48.430Z,0
2022-10-01T03:46:04.711Z,0
2022-10-01T03:47:21.007Z,0
2022-10-01T03:48:37.297Z,0
2022-10-01T03:49:53.595Z,0
2022-10-01T03:51:09.885Z,0
2022-10-01T03:52:26.189Z,0
2022-10-01T03:53:42.485Z,0
2022-10-01T03:54:58.771Z,0
2022-10-01T03:56:15.064Z,0
2022-10-01T03:57:31.358Z,0
2022-10-01T03:58:47.654Z,0
2022-10-01T04:00:03.932Z,0
2022-10-01T04:01:19.249Z,0
2022-10-01T04:02:35.544Z,0
2022-10-01T04:03:51.832Z,0
2022-10-01T04:05:08.130Z,0
2022-10-01T04:06:24.414Z,0
2022-10-01T04:07:40.713Z,0
2022-10-01T04:08:56.998Z,0
2022-10-01T04:10:13.305Z,0
2022-10-01T04:11:29.593Z,0
2022-10-01T04:12:45.881Z,0
2022-10-01T04:14:02.169Z,0
2022-10-01T04:15:18.475Z,0
2022-10-01T04:16:34.762Z,0
2022-10-01T04:17:50.068Z,0
2022-10-01T04:19:06.363Z,0
2022-10-01T04:20:22.654Z,0
2022-10-01T04:21:38.941Z,0
2022-10-01T04:22:55.250Z,0
2022-10-01T04:24:11.530Z,0
2022-10-01T04:25:27.829Z,0
2022-10-01T04:26:44.130Z,0
2022-10-01T04:28:00.411Z,0
2022-10-01T04:29:16.698Z,0
2022-10-01T04:30:32.992Z,0
2022-10-01T04:31:49.302Z,0
2022-10-01T04:33:05.596Z,0
2022-10-01T04:34:20.890Z,0
2022-10-01T04:35:37.193Z,0
2022-10-01T04:38:09.767Z,0
2022-10-01T04:39:26.060Z,0
2022-10-01T04:40:42.316Z,0
2022-10-01T04:41:58.559Z,0
2022-10-01T04:43:14.794Z,0
2022-10-01T04:44:31.031Z,0
2022-10-01T04:45:47.339Z,0
2022-10-01T04:47:03.590Z,0
2022-10-01T04:48:19.826Z,0
2022-10-01T04:49:36.067Z,0
2022-10-01T04:50:51.386Z,0
2022-10-01T04:52:07.633Z,0
2022-10-01T04:53:23.866Z,0
2022-10-01T04:54:40.116Z,0
2022-10-01T04:55:56.339Z,0
2022-10-01T04:57:12.593Z,0
2022-10-01T04:58:28.831Z,0
2022-10-01T04:59:45.062Z,0
2022-10-01T05:01:01.296Z,0
2022-10-01T05:02:17.548Z,0
2022-10-01T05:03:33.785Z,0
2022-10-01T05:04:50.021Z,0
2022-10-01T05:06:06.257Z,0
2022-10-01T05:07:21.514Z,0
2022-10-01T05:08:37.746Z,0
2022-10-01T05:09:53.983Z,0
2022-10-01T05:11:10.000Z,0
2022-10-01T05:12:26.474Z,0
2022-10-01T05:13:42.710Z,0
2022-10-01T05:14:58.941Z,0
2022-10-01T05:16:15.193Z,0
2022-10-01T05:17:31.425Z,0
2022-10-01T05:18:47.654Z,0
2022-10-01T05:20:03.901Z,0
2022-10-01T05:21:20.142Z,0
2022-10-01T05:22:36.376Z,5
2022-10-01T05:23:51.639Z,5
2022-10-01T05:25:07.878Z,5
2022-10-01T05:26:24.121Z,5
2022-10-01T05:27:40.357Z,5
2022-10-01T05:28:56.585Z,5
2022-10-01T05:30:12.820Z,5
2022-10-01T05:31:28.085Z,5
2022-10-01T05:32:44.332Z,5
2022-10-01T05:34:00.558Z,5
2022-10-01T05:35:16.813Z,5
2022-10-01T05:36:33.034Z,5
2022-10-01T05:37:49.276Z,5
2022-10-01T05:39:05.516Z,5
2022-10-01T05:40:21.765Z,5
2022-10-01T05:41:38.002Z,5
2022-10-01T05:42:54.235Z,11
2022-10-01T05:44:10.473Z,11
2022-10-01T05:45:26.707Z,11
2022-10-01T05:46:42.962Z,11
2022-10-01T05:47:58.204Z,11
2022-10-01T05:49:14.442Z,16
2022-10-01T05:50:30.696Z,16
2022-10-01T05:51:46.935Z,16
2022-10-01T05:53:03.168Z,22
2022-10-01T05:54:19.397Z,22
2022-10-01T05:55:35.634Z,28
2022-10-01T05:56:51.877Z,28
2022-10-01T05:58:08.113Z,28
2022-10-01T05:59:24.353Z,33
2022-10-01T06:00:40.601Z,33
2022-10-01T06:01:56.833Z,33
2022-10-01T06:03:13.070Z,33
2022-10-01T06:04:28.333Z,33
2022-10-01T06:05:44.560Z,28
2022-10-01T06:07:00.815Z,28
2022-10-01T06:08:17.044Z,22
2022-10-01T06:09:33.289Z,22
2022-10-01T06:10:49.524Z,22
2022-10-01T06:12:05.773Z,22
2022-10-01T06:13:22.004Z,16
2022-10-01T06:14:38.249Z,16
2022-10-01T06:15:54.474Z,16
2022-10-01T06:17:10.729Z,16
2022-10-01T06:18:26.967Z,16
2022-10-01T06:19:43.198Z,16
2022-10-01T06:20:58.444Z,16
2022-10-01T06:22:14.696Z,22
2022-10-01T06:23:30.921Z,22
2022-10-01T06:24:47.164Z,22
2022-10-01T06:26:03.409Z,22
2022-10-01T06:27:19.656Z,22
2022-10-01T06:28:35.878Z,22
2022-10-01T06:29:52.122Z,22
2022-10-01T06:31:08.368Z,22
2022-10-01T06:32:24.606Z,22
2022-10-01T06:33:40.845Z,22
2022-10-01T06:34:57.083Z,22
2022-10-01T06:36:13.318Z,22
2022-10-01T06:37:28.582Z,22
2022-10-01T06:38:44.812Z,22
2022-10-01T06:40:01.043Z,22
2022-10-01T06:41:17.282Z,22
2022-10-01T06:42:33.529Z,22
2022-10-01T06:43:49.772Z,22
2022-10-01T06:45:06.017Z,22
2022-10-01T06:46:22.241Z,22
2022-10-01T06:47:38.476Z,28
2022-10-01T06:48:54.733Z,28
2022-10-01T06:50:10.955Z,28
2022-10-01T06:51:27.200Z,28
2022-10-01T06:52:43.432Z,28
2022-10-01T06:53:58.692Z,28
2022-10-01T06:55:14.929Z,28
2022-10-01T06:56:31.173Z,28
2022-10-01T06:57:47.404Z,28
2022-10-01T06:59:03.657Z,33
2022-10-01T07:00:19.896Z,33
2022-10-01T07:01:36.130Z,33
2022-10-01T07:02:52.370Z,33
2022-10-01T07:04:08.612Z,33
2022-10-01T07:05:24.845Z,33
2022-10-01T07:06:41.092Z,33
2022-10-01T07:07:57.333Z,33
2022-10-01T07:09:13.563Z,33
2022-10-01T07:10:28.816Z,28
2022-10-01T07:11:45.060Z,28
2022-10-01T07:13:01.287Z,28
2022-10-01T07:14:17.532Z,28
2022-10-01T07:15:33.764Z,28
2022-10-01T07:16:50.014Z,28
2022-10-01T07:18:06.256Z,28
2022-10-01T07:19:22.486Z,33
2022-10-01T07:20:38.725Z,33
2022-10-01T07:21:54.972Z,33
2022-10-01T07:23:11.210Z,39
2022-10-01T07:24:27.442Z,39
2022-10-01T07:25:43.683Z,45
2022-10-01T07:26:58.940Z,45
2022-10-01T07:28:15.174Z,50
2022-10-01T07:29:31.411Z,50
2022-10-01T07:30:47.666Z,50
2022-10-01T07:32:03.898Z,56
2022-10-01T07:33:20.139Z,56
2022-10-01T07:34:36.382Z,56
2022-10-01T07:35:52.603Z,56
2022-10-01T07:37:08.851Z,56
2022-10-01T07:38:25.081Z,56
2022-10-01T07:39:41.328Z,56
2022-10-01T07:40:57.565Z,56
2022-10-01T07:42:13.804Z,56
2022-10-01T07:43:29.070Z,56
2022-10-01T07:44:45.292Z,56
2022-10-01T07:46:01.527Z,61
2022-10-01T07:47:17.777Z,61
2022-10-01T07:48:34.010Z,61
2022-10-01T07:49:50.249Z,61
2022-10-01T07:51:06.501Z,61
2022-10-01T07:52:22.726Z,56
2022-10-01T07:53:38.981Z,45
2022-10-01T07:54:55.204Z,33
2022-10-01T07:56:11.452Z,28
2022-10-01T07:57:27.687Z,33
2022-10-01T07:58:43.918Z,33
2022-10-01T07:59:59.189Z,33
2022-10-01T08:01:15.420Z,39
2022-10-01T08:02:31.649Z,39
2022-10-01T08:03:47.906Z,39
2022-10-01T08:05:04.138Z,39
2022-10-01T08:06:20.367Z,39
2022-10-01T08:07:36.622Z,39
2022-10-01T08:08:52.855Z,39
2022-10-01T08:10:09.082Z,39
2022-10-01T08:11:25.336Z,39
2022-10-01T08:12:41.572Z,39
2022-10-01T08:13:57.801Z,39
2022-10-01T08:15:14.045Z,39
2022-10-01T08:16:29.310Z,39
2022-10-01T08:17:45.540Z,45
2022-10-01T08:19:01.773Z,45
2022-10-01T08:20:18.020Z,45
2022-10-01T08:21:34.266Z,50
2022-10-01T08:22:50.493Z,50
2022-10-01T08:24:06.728Z,50
2022-10-01T08:25:22.967Z,45
2022-10-01T08:26:39.221Z,45
2022-10-01T08:27:55.439Z,45
2022-10-01T08:29:11.698Z,45
2022-10-01T08:30:27.935Z,50
2022-10-01T08:31:44.162Z,50
2022-10-01T08:32:59.429Z,50
2022-10-01T08:34:15.664Z,50
2022-10-01T08:35:31.893Z,56
2022-10-01T08:36:48.144Z,56
2022-10-01T08:38:04.370Z,61
2022-10-01T08:39:20.623Z,61
2022-10-01T08:40:36.848Z,61
2022-10-01T08:41:53.086Z,61
2022-10-01T08:43:09.338Z,56
2022-10-01T08:44:25.571Z,56
2022-10-01T08:45:41.815Z,50
2022-10-01T08:46:58.050Z,50
2022-10-01T08:48:14.293Z,50
2022-10-01T08:49:29.532Z,50
2022-10-01T08:50:45.771Z,50
2022-10-01T08:52:02.016Z,56
2022-10-01T08:53:18.260Z,56
2022-10-01T08:54:34.498Z,56
2022-10-01T08:55:50.720Z,50
2022-10-01T08:57:06.964Z,50
2022-10-01T08:58:23.202Z,50
2022-10-01T08:59:39.453Z,50
2022-10-01T09:00:55.686Z,45
2022-10-01T09:02:11.922Z,45
2022-10-01T09:03:28.154Z,45
2022-10-01T09:04:44.410Z,45
2022-10-01T09:05:59.656Z,45
2022-10-01T09:07:15.900Z,45
2022-10-01T09:08:32.124Z,45
2022-10-01T09:09:48.363Z,45
2022-10-01T09:11:04.602Z,45
2022-10-01T09:12:20.852Z,45
2022-10-01T09:13:37.089Z,45
2022-10-01T09:14:53.326Z,45
2022-10-01T09:16:09.558Z,50
2022-10-01T09:17:25.800Z,50
2022-10-01T09:18:42.047Z,50
2022-10-01T09:19:58.288Z,56
2022-10-01T09:21:14.525Z,56
2022-10-01T09:22:29.783Z,56
2022-10-01T09:25:02.259Z,56
2022-10-01T09:26:18.483Z,56
2022-10-01T09:27:34.727Z,56
2022-10-01T09:28:50.974Z,56
2022-10-01T09:30:07.206Z,56
2022-10-01T09:31:23.437Z,56
2022-10-01T09:32:39.688Z,50
2022-10-01T09:33:55.928Z,50
2022-10-01T09:35:12.165Z,56
2022-10-01T09:36:28.394Z,50
2022-10-01T09:37:44.644Z,39
2022-10-01T09:38:59.893Z,39
2022-10-01T09:40:16.120Z,33
2022-10-01T09:41:32.374Z,39
2022-10-01T09:42:48.612Z,45
2022-10-01T09:44:04.845Z,50
2022-10-01T09:45:21.075Z,45
2022-10-01T09:46:36.335Z,45
2022-10-01T09:47:52.578Z,45
2022-10-01T09:49:08.826Z,39
2022-10-01T09:50:25.060Z,39
2022-10-01T09:51:41.295Z,45
2022-10-01T09:52:57.546Z,50
2022-10-01T09:54:13.780Z,56
2022-10-01T09:55:30.023Z,56
2022-10-01T09:56:46.250Z,56
2022-10-01T09:58:02.494Z,56
2022-10-01T09:59:18.741Z,61
2022-10-01T10:00:34.963Z,61
2022-10-01T10:01:51.219Z,61
2022-10-01T10:03:06.465Z,56
2022-10-01T10:04:22.696Z,61
2022-10-01T10:05:38.939Z,56
2022-10-01T10:06:55.176Z,56
2022-10-01T10:08:11.409Z,56
2022-10-01T10:09:27.659Z,56
2022-10-01T10:10:43.901Z,56
2022-10-01T10:12:00.140Z,50
2022-10-01T10:13:16.376Z,50
2022-10-01T10:14:32.613Z,50
2022-10-01T10:15:48.841Z,56
2022-10-01T10:17:05.079Z,50
2022-10-01T10:18:21.317Z,50
2022-10-01T10:19:36.586Z,50
2022-10-01T10:20:52.820Z,45
2022-10-01T10:22:09.051Z,50
2022-10-01T10:23:25.296Z,45
2022-10-01T10:24:41.538Z,45
2022-10-01T10:25:57.778Z,45
2022-10-01T10:27:14.017Z,45
2022-10-01T10:28:30.258Z,45
2022-10-01T10:29:46.502Z,45
2022-10-01T10:31:02.721Z,45
2022-10-01T10:32:18.960Z,45
2022-10-01T10:33:35.219Z,45
2022-10-01T10:34:51.459Z,45
2022-10-01T10:36:06.699Z,45
2022-10-01T10:37:22.936Z,45
2022-10-01T10:38:39.179Z,45
2022-10-01T10:41:11.664Z,45
2022-10-01T10:42:27.904Z,50
2022-10-01T10:43:44.135Z,50
2022-10-01T10:45:00.376Z,45
2022-10-01T10:46:16.618Z,45
2022-10-01T10:47:32.855Z,39
2022-10-01T10:48:49.088Z,33
2022-10-01T10:50:05.323Z,33
2022-10-01T10:51:21.563Z,33
2022-10-01T10:52:36.829Z,33
2022-10-01T10:53:53.062Z,39
2022-10-01T10:55:09.297Z,39
2022-10-01T10:56:25.534Z,39
2022-10-01T10:57:41.768Z,39
2022-10-01T10:58:58.012Z,45
2022-10-01T11:00:14.243Z,45
2022-10-01T11:01:30.483Z,45
2022-10-01T11:02:46.723Z,45
2022-10-01T11:04:02.969Z,45
2022-10-01T11:05:19.200Z,45
2022-10-01T11:06:35.453Z,50
2022-10-01T11:07:51.687Z,50
2022-10-01T11:09:06.943Z,50
2022-10-01T11:10:23.173Z,50
2022-10-01T11:11:39.423Z,50
2022-10-01T11:12:55.663Z,50
2022-10-01T11:14:11.903Z,56
2022-10-01T11:15:28.127Z,56
2022-10-01T11:16:44.375Z,56
2022-10-01T11:18:00.616Z,61
2022-10-01T11:19:16.859Z,61
2022-10-01T11:20:33.097Z,67
2022-10-01T11:21:49.322Z,73
2022-10-01T11:23:05.572Z,73
2022-10-01T11:24:21.803Z,78
2022-10-01T11:25:37.057Z,78
2022-10-01T11:26:53.303Z,78
2022-10-01T11:28:09.525Z,84
2022-10-01T11:29:25.783Z,84
2022-10-01T11:30:42.008Z,84
2022-10-01T11:31:58.246Z,84
2022-10-01T11:33:14.488Z,95
2022-10-01T11:34:30.724Z,101
2022-10-01T11:35:46.972Z,101
2022-10-01T11:37:03.213Z,101
2022-10-01T11:38:19.455Z,95
2022-10-01T11:39:35.678Z,95
2022-10-01T11:40:51.919Z,95
2022-10-01T11:42:07.156Z,90
2022-10-01T11:43:23.385Z,78
2022-10-01T11:44:39.629Z,78
2022-10-01T11:45:55.877Z,67
2022-10-01T11:47:12.102Z,73
2022-10-01T11:48:28.353Z,78
2022-10-01T11:49:44.592Z,67
2022-10-01T11:51:00.818Z,61
2022-10-01T11:52:17.070Z,56
2022-10-01T11:53:33.314Z,61
2022-10-01T11:54:49.536Z,56
2022-10-01T11:56:05.787Z,56
2022-10-01T11:57:22.012Z,56
2022-10-01T11:58:37.272Z,61
2022-10-01T11:59:53.512Z,61
2022-10-01T12:01:09.763Z,61
2022-10-01T12:02:25.999Z,67
2022-10-01T12:03:42.237Z,67
2022-10-01T12:04:58.476Z,61
2022-10-01T12:06:14.705Z,50
2022-10-01T12:07:30.955Z,50
2022-10-01T12:08:47.187Z,50
2022-10-01T12:10:03.424Z,45
2022-10-01T12:11:19.651Z,50
2022-10-01T12:12:35.894Z,45
2022-10-01T12:13:52.145Z,45
2022-10-01T12:15:07.393Z,45
2022-10-01T12:16:23.625Z,45
2022-10-01T12:17:39.869Z,45
2022-10-01T12:18:56.120Z,45
2022-10-01T12:20:12.352Z,39
2022-10-01T12:21:28.585Z,39
2022-10-01T12:22:44.828Z,33
2022-10-01T12:24:01.056Z,33
2022-10-01T12:25:17.305Z,33
2022-10-01T12:26:33.543Z,39
2022-10-01T12:27:49.773Z,50
2022-10-01T12:29:06.022Z,56
2022-10-01T12:30:22.254Z,61
2022-10-01T12:31:37.505Z,84
2022-10-01T12:32:53.755Z,84
2022-10-01T12:34:09.983Z,73
2022-10-01T12:35:26.231Z,73
2022-10-01T12:36:42.472Z,84
2022-10-01T12:37:58.706Z,90
2022-10-01T12:39:14.945Z,84
2022-10-01T12:40:31.191Z,73
2022-10-01T12:41:47.419Z,73
2022-10-01T12:43:03.655Z,73
2022-10-01T12:44:19.905Z,90
2022-10-01T12:45:36.134Z,84
2022-10-01T12:46:52.381Z,84
2022-10-01T12:48:07.633Z,84
2022-10-01T12:49:23.877Z,84
2022-10-01T12:50:40.119Z,78
2022-10-01T12:51:56.354Z,73
2022-10-01T12:53:12.589Z,73
2022-10-01T12:54:28.823Z,73
2022-10-01T12:55:45.070Z,78
2022-10-01T12:57:01.298Z,78
2022-10-01T12:58:17.546Z,78
2022-10-01T12:59:33.770Z,78
2022-10-01T13:00:50.021Z,78
2022-10-01T13:02:06.250Z,84
2022-10-01T13:03:22.504Z,90
2022-10-01T13:04:37.754Z,118
2022-10-01T13:05:53.989Z,140
2022-10-01T13:07:10.222Z,146
2022-10-01T13:08:26.458Z,151
2022-10-01T13:09:42.715Z,191
2022-10-01T13:10:58.952Z,219
2022-10-01T13:12:15.190Z,196
2022-10-01T13:13:31.418Z,174
2022-10-01T13:14:47.662Z,140
2022-10-01T13:16:03.895Z,106
2022-10-01T13:17:20.147Z,84
2022-10-01T13:18:36.385Z,78
2022-10-01T13:19:52.611Z,78
2022-10-01T13:21:07.872Z,90
2022-10-01T13:22:24.104Z,90
2022-10-01T13:23:40.349Z,84
2022-10-01T13:24:56.586Z,84
2022-10-01T13:26:12.831Z,67
2022-10-01T13:27:29.064Z,61
2022-10-01T13:28:45.309Z,45
2022-10-01T13:30:01.548Z,39
2022-10-01T13:31:17.781Z,39
2022-10-01T13:32:34.011Z,39
2022-10-01T13:33:50.250Z,33
2022-10-01T13:35:06.485Z,33
2022-10-01T13:36:22.740Z,33
2022-10-01T13:37:37.986Z,33
2022-10-01T13:38:54.232Z,33
2022-10-01T13:40:10.460Z,33
2022-10-01T13:41:26.701Z,33
2022-10-01T13:42:42.000Z,39
2022-10-01T13:43:59.176Z,33
2022-10-01T13:45:15.411Z,33
2022-10-01T13:46:31.654Z,39
2022-10-01T13:47:47.904Z,39
2022-10-01T13:49:04.130Z,39
2022-10-01T13:50:20.378Z,39
2022-10-01T13:51:36.612Z,45
2022-10-01T13:52:52.856Z,50
2022-10-01T13:54:08.108Z,56
2022-10-01T13:55:24.345Z,56
2022-10-01T13:56:40.571Z,61
2022-10-01T13:57:56.820Z,67
2022-10-01T13:59:13.065Z,78
2022-10-01T14:00:29.297Z,95
2022-10-01T14:01:44.551Z,95
2022-10-01T14:03:00.791Z,84
2022-10-01T14:04:17.025Z,67
2022-10-01T14:05:33.275Z,90
2022-10-01T14:06:49.517Z,112
2022-10-01T14:08:05.751Z,129
2022-10-01T14:09:21.997Z,135
2022-10-01T14:10:38.217Z,129
2022-10-01T14:11:54.463Z,118
2022-10-01T14:13:10.696Z,118
2022-10-01T14:14:26.935Z,118
2022-10-01T14:15:43.175Z,146
2022-10-01T14:16:59.412Z,146
2022-10-01T14:18:14.680Z,151
2022-10-01T14:19:30.907Z,140
2022-10-01T14:20:47.167Z,163
2022-10-01T14:22:03.386Z,236
2022-10-01T14:23:19.624Z,185
2022-10-01T14:24:35.871Z,140
2022-10-01T14:25:52.106Z,123
2022-10-01T14:27:08.339Z,123
2022-10-01T14:28:24.589Z,129
2022-10-01T14:29:40.828Z,129
2022-10-01T14:30:57.058Z,123
2022-10-01T14:32:13.291Z,112
2022-10-01T14:33:29.544Z,101
2022-10-01T14:34:44.797Z,106
2022-10-01T14:36:01.029Z,101
2022-10-01T14:37:17.275Z,84
2022-10-01T14:38:33.506Z,84
2022-10-01T14:39:49.742Z,90
2022-10-01T14:41:05.990Z,106
2022-10-01T14:42:22.219Z,140
2022-10-01T14:43:38.472Z,135
2022-10-01T14:44:54.701Z,163
2022-10-01T14:46:10.942Z,208
2022-10-01T14:47:27.177Z,185
2022-10-01T14:48:43.418Z,202
2022-10-01T14:49:59.650Z,191
2022-10-01T14:51:14.917Z,382
2022-10-01T14:52:31.155Z,213
2022-10-01T14:53:47.381Z,258
2022-10-01T14:55:03.633Z,556
2022-10-01T14:56:19.866Z,253
2022-10-01T14:57:36.101Z,202
2022-10-01T14:58:52.338Z,135
2022-10-01T15:00:08.587Z,106
2022-10-01T15:01:24.820Z,118
2022-10-01T15:02:41.059Z,112
2022-10-01T15:03:57.296Z,95
2022-10-01T15:05:13.524Z,84
2022-10-01T15:06:29.763Z,78
2022-10-01T15:07:45.021Z,73
2022-10-01T15:09:01.259Z,67
2022-10-01T15:10:17.504Z,61
2022-10-01T15:11:33.748Z,56
2022-10-01T15:12:49.989Z,61
2022-10-01T15:14:06.212Z,56
2022-10-01T15:15:22.454Z,50
2022-10-01T15:16:38.706Z,45
2022-10-01T15:17:54.945Z,45
2022-10-01T15:19:11.164Z,39
2022-10-01T15:20:27.412Z,33
2022-10-01T15:21:43.662Z,33
2022-10-01T15:22:59.889Z,28
2022-10-01T15:24:15.143Z,33
2022-10-01T15:25:31.393Z,39
2022-10-01T15:26:47.615Z,33
2022-10-01T15:28:03.853Z,28
2022-10-01T15:29:20.101Z,22
2022-10-01T15:30:36.336Z,22
2022-10-01T15:31:52.576Z,22
2022-10-01T15:33:08.816Z,16
2022-10-01T15:34:25.062Z,11
2022-10-01T15:35:41.302Z,11
2022-10-01T15:36:57.541Z,11
2022-10-01T15:38:13.773Z,22
2022-10-01T15:39:30.013Z,22
2022-10-01T15:40:45.270Z,22
2022-10-01T15:42:01.493Z,33
2022-10-01T15:43:17.745Z,33
2022-10-01T15:44:33.982Z,45
2022-10-01T15:45:50.206Z,50
2022-10-01T15:47:06.465Z,50
2022-10-01T15:48:22.703Z,50
2022-10-01T15:49:38.922Z,45
2022-10-01T15:50:55.174Z,45
2022-10-01T15:52:11.417Z,45
2022-10-01T15:53:27.652Z,39
2022-10-01T15:54:43.885Z,39
2022-10-01T15:56:00.133Z,39
2022-10-01T15:57:15.373Z,39
2022-10-01T15:58:31.623Z,33
2022-10-01T15:59:47.863Z,33
2022-10-01T16:01:04.107Z,33
2022-10-01T16:02:20.330Z,33
2022-10-01T16:03:36.571Z,33
2022-10-01T16:04:52.822Z,28
2022-10-01T16:06:09.055Z,28
2022-10-01T16:08:41.526Z,22
2022-10-01T16:09:57.774Z,22
2022-10-01T16:11:14.013Z,22
2022-10-01T16:12:30.243Z,22
2022-10-01T16:13:45.497Z,22
2022-10-01T16:15:01.728Z,22
2022-10-01T16:16:17.980Z,16
2022-10-01T16:17:34.213Z,16
2022-10-01T16:18:50.453Z,11
2022-10-01T16:20:06.697Z,11
2022-10-01T16:21:22.933Z,11
2022-10-01T16:22:39.174Z,11
2022-10-01T16:23:55.406Z,11
2022-10-01T16:25:11.639Z,5
2022-10-01T16:26:27.890Z,5
2022-10-01T16:29:00.355Z,5
2022-10-01T16:30:15.624Z,0
2022-10-01T16:31:31.855Z,0
2022-10-01T16:32:48.087Z,0
2022-10-01T16:34:04.331Z,0
2022-10-01T16:35:20.563Z,0
2022-10-01T16:36:36.811Z,0
2022-10-01T16:37:53.050Z,0
2022-10-01T16:39:09.281Z,0
2022-10-01T16:40:25.525Z,0
2022-10-01T16:41:41.772Z,0
2022-10-01T16:42:57.996Z,0
2022-10-01T16:44:14.231Z,0
2022-10-01T16:45:30.484Z,0
2022-10-01T16:46:45.737Z,0
2022-10-01T16:48:01.981Z,0
2022-10-01T16:49:18.206Z,0
2022-10-01T16:50:34.441Z,0
2022-10-01T16:51:50.688Z,0
2022-10-01T16:53:06.935Z,0
2022-10-01T16:54:23.158Z,0
2022-10-01T16:55:39.410Z,0
2022-10-01T16:56:55.654Z,0
2022-10-01T16:58:11.890Z,0
2022-10-01T16:59:28.125Z,0
2022-10-01T17:00:44.359Z,0
2022-10-01T17:02:00.599Z,0
2022-10-01T17:03:15.854Z,0
2022-10-01T17:04:32.084Z,0
2022-10-01T17:05:48.336Z,0
2022-10-01T17:07:04.566Z,0
2022-10-01T17:08:20.804Z,0
2022-10-01T17:09:37.042Z,0
2022-10-01T17:10:53.276Z,0
2022-10-01T17:12:09.531Z,0
2022-10-01T17:13:25.752Z,0
2022-10-01T17:14:42.057Z,0
2022-10-01T17:15:58.339Z,0
2022-10-01T17:17:14.643Z,0
2022-10-01T17:18:30.932Z,0
2022-10-01T17:19:46.231Z,0
2022-10-01T17:21:02.540Z,0
2022-10-01T17:22:18.830Z,0
2022-10-01T17:23:35.122Z,0
2022-10-01T17:24:51.415Z,0
2022-10-01T17:26:07.695Z,0
2022-10-01T17:27:23.988Z,0
2022-10-01T17:28:40.279Z,0
2022-10-01T17:29:56.588Z,0
2022-10-01T17:31:12.875Z,0
2022-10-01T17:32:29.159Z,0
2022-10-01T17:33:45.464Z,0
2022-10-01T17:35:01.741Z,0
2022-10-01T17:36:17.053Z,0
2022-10-01T17:37:33.357Z,0
2022-10-01T17:38:49.647Z,0
2022-10-01T17:40:05.944Z,0
2022-10-01T17:41:22.224Z,0
2022-10-01T17:43:54.824Z,0
2022-10-01T17:45:11.096Z,0
2022-10-01T17:46:27.389Z,0
2022-10-01T17:47:43.688Z,0
2022-10-01T17:48:59.990Z,0
2022-10-01T17:50:16.278Z,0
2022-10-01T17:51:32.577Z,0
2022-10-01T17:52:47.878Z,0
2022-10-01T17:54:04.173Z,0
2022-10-01T17:55:20.459Z,0
2022-10-01T17:56:36.757Z,0
2022-10-01T17:57:53.057Z,0
2022-10-01T17:59:09.343Z,0
2022-10-01T18:00:25.632Z,0
2022-10-01T18:01:41.935Z,0
2022-10-01T18:02:58.213Z,0
2022-10-01T18:04:14.519Z,0
2022-10-01T18:05:30.797Z,0
2022-10-01T18:06:47.089Z,0
2022-10-01T18:08:03.392Z,0
2022-10-01T18:09:18.694Z,0
2022-10-01T18:10:34.994Z,0
2022-10-01T18:11:51.289Z,0
2022-10-01T18:13:07.571Z,0
2022-10-01T18:14:23.859Z,0
2022-10-01T18:15:40.156Z,0
2022-10-01T18:16:55.481Z,0
2022-10-01T18:18:11.770Z,0
2022-10-01T18:19:28.054Z,0
2022-10-01T18:20:44.347Z,0
2022-10-01T18:22:00.645Z,0
2022-10-01T18:23:16.946Z,0
2022-10-01T18:24:33.231Z,0
2022-10-01T18:25:49.530Z,0
2022-10-01T18:27:05.815Z,0
2022-10-01T18:28:22.101Z,0
2022-10-01T18:29:38.401Z,0